createdAt,value
2023-10-20T00:00:44.758Z,75.28
2023-10-20T00:03:23.366Z,79.53
2023-10-20T00:05:52.223Z,76.35
2023-10-20T00:08:21.620Z,78.03
2023-10-20T00:10:49.680Z,76.05
2023-10-20T00:13:17.242Z,75.07
2023-10-20T00:15:50.820Z,69.43
2023-10-20T00:18:20.254Z,67.55
2023-10-20T00:20:47.561Z,76.82
2023-10-20T00:23:18.881Z,76.75
2023-10-20T00:25:47.765Z,70.27
2023-10-20T00:28:18.214Z,69.20
2023-10-20T00:30:45.545Z,67.57
2023-10-20T00:33:14.952Z,60.33
2023-10-20T00:35:41.852Z,70.88
2023-10-20T00:38:10.231Z,57.20
2023-10-20T00:40:37.559Z,65.78
2023-10-20T00:43:13.621Z,62.45
2023-10-20T00:45:41.976Z,64.30
2023-10-20T00:48:09.329Z,78.32
2023-10-20T00:50:36.381Z,79.97
2023-10-20T00:53:04.984Z,67.47
2023-10-20T00:55:41.410Z,69.07
2023-10-20T00:58:09.972Z,72.68
2023-10-20T01:00:39.563Z,70.47
2023-10-20T01:03:06.649Z,75.22
2023-10-20T01:05:38.167Z,78.65
2023-10-20T01:08:05.283Z,81.88
2023-10-20T01:10:34.617Z,80.05
2023-10-20T01:13:05.464Z,68.00
2023-10-20T01:15:35.973Z,83.15
2023-10-20T01:18:07.390Z,67.15
2023-10-20T01:20:37.968Z,66.55
2023-10-20T01:23:07.242Z,65.90
2023-10-20T01:25:36.147Z,68.63
2023-10-20T01:28:04.799Z,56.22
2023-10-20T01:30:32.352Z,67.63
2023-10-20T01:32:59.841Z,63.30
2023-10-20T01:35:29.795Z,64.93
2023-10-20T01:37:59.204Z,64.82
2023-10-20T01:40:29.241Z,66.28
2023-10-20T01:42:59.434Z,69.05
2023-10-20T01:45:26.176Z,69.20
2023-10-20T01:47:53.274Z,73.80
2023-10-20T01:50:29.571Z,81.53
2023-10-20T01:52:58.862Z,81.50
2023-10-20T01:55:27.906Z,85.03
2023-10-20T01:57:57.615Z,71.40
2023-10-20T02:00:28.854Z,84.45
2023-10-20T02:02:56.864Z,86.57
2023-10-20T02:05:28.976Z,76.55
2023-10-20T02:07:56.873Z,79.10
2023-10-20T02:10:24.833Z,82.70
2023-10-20T02:13:01.847Z,79.80
2023-10-20T02:15:31.433Z,82.93
2023-10-20T02:18:00.864Z,80.18
2023-10-20T02:20:32.506Z,85.55
2023-10-20T02:22:59.470Z,85.95
2023-10-20T02:25:28.965Z,81.72
2023-10-20T02:28:00.690Z,82.10
2023-10-20T02:30:29.056Z,79.57
2023-10-20T02:32:56.961Z,85.43
2023-10-20T02:35:24.729Z,85.05
2023-10-20T02:37:52.238Z,76.57
2023-10-20T02:40:19.832Z,79.88
2023-10-20T02:42:51.197Z,75.72
2023-10-20T02:45:21.873Z,74.78
2023-10-20T02:47:51.925Z,79.28
2023-10-20T02:50:21.863Z,71.85
2023-10-20T02:52:48.564Z,78.15
2023-10-20T02:55:18.300Z,75.93
2023-10-20T02:57:48.887Z,79.85
2023-10-20T03:00:19.971Z,69.32
2023-10-20T03:02:50.487Z,68.32
2023-10-20T03:05:19.477Z,69.93
2023-10-20T03:07:47.347Z,54.65
2023-10-20T03:10:15.964Z,71.75
2023-10-20T03:12:44.882Z,71.80
2023-10-20T03:15:12.433Z,76.13
2023-10-20T03:17:50.353Z,80.05
2023-10-20T03:20:21.309Z,70.88
2023-10-20T03:22:50.792Z,64.47
2023-10-20T03:25:22.189Z,65.57
2023-10-20T03:27:51.852Z,65.00
2023-10-20T03:30:23.601Z,67.55
2023-10-20T03:32:51.790Z,70.93
2023-10-20T03:35:20.934Z,76.88
2023-10-20T03:37:56.053Z,77.03
2023-10-20T03:40:33.954Z,73.65
2023-10-20T03:43:04.284Z,71.75
2023-10-20T03:45:41.274Z,73.43
2023-10-20T03:48:13.002Z,69.18
2023-10-20T03:50:45.466Z,71.32
2023-10-20T03:53:22.853Z,71.97
2023-10-20T03:56:08.425Z,63.53
2023-10-20T03:58:37.958Z,64.43
2023-10-20T04:01:07.736Z,64.50
2023-10-20T04:03:34.706Z,65.28
2023-10-20T04:06:05.223Z,66.10
2023-10-20T04:08:34.193Z,64.60
2023-10-20T04:11:04.461Z,69.30
2023-10-20T04:13:34.806Z,60.83
2023-10-20T04:16:17.010Z,67.90
2023-10-20T04:18:45.486Z,64.20
2023-10-20T04:21:22.009Z,64.80
2023-10-20T04:23:53.306Z,61.97
2023-10-20T04:26:25.941Z,66.30
2023-10-20T04:29:30.704Z,67.75
2023-10-20T04:32:19.311Z,69.72
2023-10-20T04:35:11.308Z,75.22
2023-10-20T04:38:00.964Z,69.63
2023-10-20T04:40:49.280Z,69.85
2023-10-20T04:43:38.438Z,67.90
2023-10-20T04:46:25.272Z,70.80
2023-10-20T04:48:58.661Z,76.00
2023-10-20T04:51:54.854Z,67.40
2023-10-20T04:54:46.053Z,66.60
2023-10-20T04:57:34.756Z,63.15
2023-10-20T05:00:12.486Z,64.18
2023-10-20T05:03:01.554Z,67.05
2023-10-20T05:05:38.765Z,60.03
2023-10-20T05:08:13.449Z,58.85
2023-10-20T05:10:43.782Z,59.97
2023-10-20T05:13:26.045Z,67.70
2023-10-20T05:15:54.402Z,68.15
2023-10-20T05:18:21.477Z,67.25
2023-10-20T05:20:48.643Z,63.03
2023-10-20T05:23:16.744Z,62.25
2023-10-20T05:25:48.783Z,58.38
2023-10-20T05:28:18.025Z,60.65
2023-10-20T05:30:47.395Z,58.45
2023-10-20T05:33:18.871Z,55.70
2023-10-20T05:35:49.880Z,63.50
2023-10-20T05:38:18.078Z,60.42
2023-10-20T05:40:58.755Z,64.93
2023-10-20T05:43:29.382Z,58.38
2023-10-20T05:45:56.978Z,57.20
2023-10-20T05:48:25.857Z,68.72
2023-10-20T05:50:59.091Z,68.85
2023-10-20T05:53:27.474Z,72.13
2023-10-20T05:55:56.489Z,51.92
2023-10-20T05:58:25.250Z,57.28
2023-10-20T06:01:02.969Z,54.08
2023-10-20T06:03:32.897Z,52.67
2023-10-20T06:06:05.291Z,56.67
2023-10-20T06:08:35.160Z,59.25
2023-10-20T06:11:08.525Z,49.15
2023-10-20T06:13:37.042Z,51.95
2023-10-20T06:16:13.582Z,47.35
2023-10-20T06:18:42.948Z,51.58
2023-10-20T06:21:18.431Z,46.63
2023-10-20T06:23:47.615Z,45.30
2023-10-20T06:26:16.346Z,44.83
2023-10-20T06:28:48.709Z,49.83
2023-10-20T06:31:37.880Z,46.90
2023-10-20T06:34:25.032Z,47.08
2023-10-20T06:37:00.665Z,45.33
2023-10-20T06:39:27.579Z,47.40
2023-10-20T06:41:56.291Z,40.80
2023-10-20T06:44:27.241Z,46.50
2023-10-20T06:46:59.390Z,44.58
2023-10-20T06:51:52.749Z,40.60
2023-10-20T06:54:19.424Z,42.00
2023-10-20T06:56:49.548Z,44.30
2023-10-20T07:01:47.830Z,43.75
2023-10-20T07:04:17.373Z,44.47
2023-10-20T07:06:47.139Z,43.63
2023-10-20T07:09:15.798Z,42.70
2023-10-20T07:11:45.473Z,47.53
2023-10-20T07:14:12.461Z,45.25
2023-10-20T07:16:40.252Z,49.05
2023-10-20T07:19:10.369Z,45.92
2023-10-20T07:21:40.153Z,41.80
2023-10-20T07:24:09.336Z,37.67
2023-10-20T07:26:37.446Z,42.28
2023-10-20T07:29:05.442Z,38.45
2023-10-20T07:31:35.450Z,38.22
2023-10-20T07:34:07.543Z,37.20
2023-10-20T07:36:34.395Z,33.58
2023-10-20T07:39:01.051Z,30.20
2023-10-20T07:41:30.303Z,34.20
2023-10-20T07:44:00.793Z,31.75
2023-10-20T07:46:29.588Z,34.60
2023-10-20T07:48:58.345Z,35.70
2023-10-20T07:51:29.390Z,33.13
2023-10-20T07:53:57.091Z,35.28
2023-10-20T07:56:26.597Z,43.40
2023-10-20T07:58:55.940Z,31.10
2023-10-20T08:01:30.167Z,30.13
2023-10-20T08:03:57.309Z,28.27
2023-10-20T08:06:26.214Z,30.83
2023-10-20T08:08:55.112Z,32.17
2023-10-20T08:11:22.256Z,32.80
2023-10-20T08:13:52.088Z,27.52
2023-10-20T08:16:24.325Z,26.38
2023-10-20T08:18:52.354Z,29.45
2023-10-20T08:21:21.128Z,32.08
2023-10-20T08:23:48.083Z,27.67
2023-10-20T08:26:17.088Z,31.02
2023-10-20T08:28:44.381Z,28.85
2023-10-20T08:31:23.125Z,28.23
2023-10-20T08:33:53.412Z,33.63
2023-10-20T08:36:24.526Z,32.70
2023-10-20T08:38:53.732Z,33.53
2023-10-20T08:41:24.122Z,30.85
2023-10-20T08:43:51.396Z,30.45
2023-10-20T08:46:19.426Z,29.30
2023-10-20T08:48:48.844Z,30.23
2023-10-20T08:51:19.968Z,31.98
2023-10-20T08:53:47.732Z,29.05
2023-10-20T08:56:16.220Z,26.33
2023-10-20T08:58:46.460Z,29.20
2023-10-20T09:01:14.265Z,23.15
2023-10-20T09:03:52.339Z,26.10
2023-10-20T09:06:19.664Z,27.80
2023-10-20T09:08:51.583Z,29.40
2023-10-20T09:11:34.052Z,28.33
2023-10-20T09:14:02.213Z,31.80
2023-10-20T09:16:31.086Z,28.48
2023-10-20T09:21:43.492Z,26.98
2023-10-20T09:24:13.103Z,27.23
2023-10-20T09:26:44.414Z,32.08
2023-10-20T09:29:11.333Z,28.65
2023-10-20T09:31:39.221Z,29.77
2023-10-20T09:34:09.232Z,27.20
2023-10-20T09:36:39.208Z,29.90
2023-10-20T09:39:09.873Z,28.67
2023-10-20T09:41:44.071Z,30.95
2023-10-20T09:44:23.812Z,25.38
2023-10-20T09:46:55.886Z,25.42
2023-10-20T09:49:30.107Z,27.75
2023-10-20T09:52:00.651Z,30.95
2023-10-20T09:54:30.718Z,27.60
2023-10-20T09:57:08.599Z,25.85
2023-10-20T09:59:38.789Z,24.73
2023-10-20T10:02:15.917Z,28.05
2023-10-20T10:04:46.441Z,26.52
2023-10-20T10:07:24.255Z,25.67
2023-10-20T10:09:50.981Z,29.02
2023-10-20T10:12:24.384Z,30.77
2023-10-20T10:15:17.651Z,27.33
2023-10-20T10:20:48.896Z,27.90
2023-10-20T10:23:16.292Z,31.98
2023-10-20T10:25:47.306Z,34.33
2023-10-20T10:28:25.427Z,24.30
2023-10-20T10:30:55.957Z,27.67
2023-10-20T10:33:24.511Z,29.77
2023-10-20T10:36:06.937Z,36.47
2023-10-20T10:38:49.339Z,25.15
2023-10-20T10:41:23.478Z,28.13
2023-10-20T10:43:55.599Z,33.20
2023-10-20T10:46:35.948Z,34.55
2023-10-20T10:49:11.021Z,22.63
2023-10-20T10:51:50.719Z,31.55
2023-10-20T10:54:21.522Z,37.53
2023-10-20T10:56:50.857Z,22.92
2023-10-20T10:59:19.176Z,24.52
2023-10-20T11:01:46.265Z,25.80
2023-10-20T11:04:18.541Z,21.02
2023-10-20T11:06:46.674Z,23.77
2023-10-20T11:09:20.627Z,25.25
2023-10-20T11:11:52.779Z,22.92
2023-10-20T11:14:22.252Z,27.08
2023-10-20T11:16:50.433Z,25.33
2023-10-20T11:19:20.963Z,25.48
2023-10-20T11:21:50.738Z,27.25
2023-10-20T11:24:37.891Z,24.80
2023-10-20T11:27:06.483Z,28.67
2023-10-20T11:29:46.867Z,34.53
2023-10-20T11:32:20.145Z,40.42
2023-10-20T11:34:46.984Z,28.52
2023-10-20T11:37:15.758Z,26.40
2023-10-20T11:39:43.542Z,29.65
2023-10-20T11:42:13.072Z,26.35
2023-10-20T11:44:41.878Z,27.80
2023-10-20T11:47:09.954Z,84.97
2023-10-20T11:49:38.950Z,175.82
2023-10-20T11:52:11.959Z,47.75
2023-10-20T11:54:40.930Z,43.63
2023-10-20T11:57:11.360Z,47.50
2023-10-20T11:59:41.884Z,32.33
2023-10-20T12:02:10.604Z,57.53
2023-10-20T12:04:37.412Z,37.83
2023-10-20T12:07:05.207Z,39.35
2023-10-20T12:12:02.358Z,37.03
2023-10-20T12:14:31.467Z,28.50
2023-10-20T12:16:58.509Z,30.25
2023-10-20T12:19:26.150Z,29.98
2023-10-20T12:21:53.020Z,30.73
2023-10-20T12:24:20.125Z,34.05
2023-10-20T12:26:46.711Z,35.92
2023-10-20T12:29:15.015Z,33.90
2023-10-20T12:31:44.446Z,32.85
2023-10-20T12:34:11.193Z,29.83
2023-10-20T12:36:43.406Z,35.85
2023-10-20T12:39:20.848Z,29.38
2023-10-20T12:41:51.340Z,27.48
2023-10-20T12:44:20.187Z,30.13
2023-10-20T12:46:49.343Z,32.83
2023-10-20T12:49:21.305Z,33.75
2023-10-20T12:54:18.253Z,32.20
2023-10-20T12:56:50.310Z,29.92
2023-10-20T12:59:19.839Z,31.20
2023-10-20T13:01:48.180Z,35.35
2023-10-20T13:04:15.761Z,34.83
2023-10-20T13:06:58.125Z,30.30
2023-10-20T13:09:28.302Z,31.15
2023-10-20T13:12:02.430Z,31.23
2023-10-20T13:14:32.078Z,32.80
2023-10-20T13:16:59.931Z,59.28
2023-10-20T13:19:28.474Z,61.28
2023-10-20T13:21:55.311Z,45.60
2023-10-20T13:24:22.008Z,43.88
2023-10-20T13:26:48.977Z,53.15
2023-10-20T13:29:29.325Z,46.42
2023-10-20T13:31:56.392Z,48.97
2023-10-20T13:34:26.172Z,52.38
2023-10-20T13:36:54.136Z,34.13
2023-10-20T13:39:31.436Z,28.98
2023-10-20T13:42:03.213Z,25.35
2023-10-20T13:44:32.496Z,29.13
2023-10-20T13:47:02.186Z,30.00
2023-10-20T13:49:31.617Z,22.80
2023-10-20T13:51:58.824Z,26.80
2023-10-20T13:54:28.379Z,27.70
2023-10-20T13:56:58.818Z,29.35
2023-10-20T13:59:27.111Z,33.08
2023-10-20T14:01:57.309Z,26.33
2023-10-20T14:04:27.827Z,26.15
2023-10-20T14:06:57.189Z,23.60
2023-10-20T14:09:26.538Z,25.52
2023-10-20T14:11:54.733Z,28.85
2023-10-20T14:14:23.550Z,26.58
2023-10-20T14:16:52.389Z,28.73
2023-10-20T14:19:21.000Z,28.67
2023-10-20T14:21:49.718Z,25.77
2023-10-20T14:24:19.112Z,26.10
2023-10-20T14:26:48.318Z,26.20
2023-10-20T14:29:17.615Z,25.77
2023-10-20T14:31:45.711Z,34.70
2023-10-20T14:34:12.419Z,30.13
2023-10-20T14:36:43.958Z,38.33
2023-10-20T14:39:15.448Z,35.45
2023-10-20T14:41:45.610Z,39.83
2023-10-20T14:44:15.940Z,42.53
2023-10-20T14:46:45.438Z,36.05
2023-10-20T14:49:14.454Z,38.88
2023-10-20T14:51:42.124Z,34.03
2023-10-20T14:54:09.139Z,50.05
2023-10-20T14:56:37.842Z,39.90
2023-10-20T14:59:04.456Z,37.50
2023-10-20T15:01:31.831Z,40.33
2023-10-20T15:04:10.660Z,41.88
2023-10-20T15:06:47.492Z,31.30
2023-10-20T15:09:15.405Z,34.38
2023-10-20T15:11:42.275Z,30.63
2023-10-20T15:14:11.130Z,38.65
2023-10-20T15:16:39.575Z,41.88
2023-10-20T15:19:07.168Z,79.75
2023-10-20T15:21:36.674Z,59.17
2023-10-20T15:24:06.582Z,68.72
2023-10-20T15:26:36.514Z,78.35
2023-10-20T15:29:07.842Z,57.17
2023-10-20T15:31:35.235Z,44.00
2023-10-20T15:34:04.183Z,29.77
2023-10-20T15:36:52.331Z,42.17
2023-10-20T15:39:32.375Z,56.70
2023-10-20T15:42:10.252Z,46.15
2023-10-20T15:44:39.087Z,51.15
2023-10-20T15:47:06.418Z,49.50
2023-10-20T15:49:33.255Z,40.17
2023-10-20T15:52:01.155Z,35.67
2023-10-20T15:54:28.886Z,45.92
2023-10-20T15:56:59.175Z,46.05
2023-10-20T15:59:28.622Z,49.22
2023-10-20T16:01:56.296Z,159.02
2023-10-20T16:04:25.778Z,47.25
2023-10-20T16:06:54.548Z,34.10
2023-10-20T16:09:24.699Z,54.40
2023-10-20T16:11:52.716Z,32.65
2023-10-20T16:14:20.848Z,44.50
2023-10-20T16:16:48.323Z,45.08
2023-10-20T16:19:16.546Z,56.20
2023-10-20T16:21:46.490Z,67.10
2023-10-20T16:24:18.308Z,67.85
2023-10-20T16:29:12.205Z,43.20
2023-10-20T16:34:21.668Z,54.33
2023-10-20T16:36:52.409Z,34.20
2023-10-20T16:39:24.878Z,34.55
2023-10-20T16:41:52.767Z,42.95
2023-10-20T16:44:21.623Z,42.17
2023-10-20T16:46:50.887Z,45.13
2023-10-20T16:49:20.002Z,29.90
2023-10-20T16:51:47.949Z,36.33
2023-10-20T16:54:20.063Z,50.67
2023-10-20T16:56:47.871Z,38.53
2023-10-20T16:59:17.281Z,49.28
2023-10-20T17:01:45.577Z,44.92
2023-10-20T17:04:13.511Z,49.03
2023-10-20T17:06:42.785Z,48.00
2023-10-20T17:09:09.927Z,44.13
2023-10-20T17:11:38.807Z,43.95
2023-10-20T17:14:09.242Z,46.33
2023-10-20T17:16:46.214Z,38.42
2023-10-20T17:19:16.580Z,48.42
2023-10-20T17:21:46.418Z,52.13
2023-10-20T17:24:16.531Z,44.67
2023-10-20T17:26:45.562Z,40.75
2023-10-20T17:29:14.709Z,54.58
2023-10-20T17:31:46.136Z,49.50
2023-10-20T17:34:17.988Z,54.40
2023-10-20T17:36:45.141Z,45.80
2023-10-20T17:39:15.636Z,44.92
2023-10-20T17:41:45.162Z,45.47
2023-10-20T17:44:12.376Z,47.40
2023-10-20T17:46:39.377Z,43.53
2023-10-20T17:49:10.614Z,43.17
2023-10-20T17:51:38.186Z,39.97
2023-10-20T17:54:08.144Z,40.55
2023-10-20T17:56:37.359Z,39.63
2023-10-20T17:59:04.334Z,69.40
2023-10-20T18:01:32.492Z,60.58
2023-10-20T18:03:59.439Z,53.38
2023-10-20T18:06:39.182Z,54.15
2023-10-20T18:09:08.291Z,87.15
2023-10-20T18:11:38.630Z,107.47
2023-10-20T18:14:06.909Z,47.80
2023-10-20T18:16:36.007Z,49.60
2023-10-20T18:19:06.082Z,70.13
2023-10-20T18:21:34.818Z,45.35
2023-10-20T18:24:11.209Z,42.58
2023-10-20T18:26:38.318Z,39.63
2023-10-20T18:29:06.567Z,42.30
2023-10-20T18:31:33.976Z,35.22
2023-10-20T18:34:00.735Z,37.10
2023-10-20T18:36:28.184Z,44.38
2023-10-20T18:39:05.287Z,28.92
2023-10-20T18:41:44.374Z,39.28
2023-10-20T18:44:14.506Z,51.78
2023-10-20T18:46:41.627Z,49.25
2023-10-20T18:49:09.660Z,46.65
2023-10-20T18:51:36.266Z,30.00
2023-10-20T18:54:06.651Z,36.22
2023-10-20T18:56:35.074Z,36.15
2023-10-20T18:59:02.196Z,34.13
2023-10-20T19:04:11.004Z,50.65
2023-10-20T19:06:38.843Z,85.22
2023-10-20T19:09:09.431Z,44.17
2023-10-20T19:11:38.305Z,72.80
2023-10-20T19:14:08.461Z,37.60
2023-10-20T19:16:35.558Z,45.55
2023-10-20T19:19:05.257Z,182.52
2023-10-20T19:21:32.059Z,254.20
2023-10-20T19:24:01.575Z,223.60
2023-10-20T19:26:28.876Z,103.95
2023-10-20T19:28:59.129Z,84.60
2023-10-20T19:31:27.260Z,95.95
2023-10-20T19:33:55.920Z,74.53
2023-10-20T19:36:22.876Z,46.38
2023-10-20T19:38:51.485Z,75.32
2023-10-20T19:41:21.425Z,73.20
2023-10-20T19:43:48.388Z,53.67
2023-10-20T19:46:15.618Z,49.20
2023-10-20T19:48:46.052Z,67.47
2023-10-20T19:51:13.022Z,44.47
2023-10-20T19:53:43.229Z,51.90
2023-10-20T19:56:12.996Z,34.00
2023-10-20T19:58:41.530Z,33.08
2023-10-20T20:01:08.579Z,36.30
2023-10-20T20:03:36.230Z,58.72
2023-10-20T20:06:16.385Z,57.08
2023-10-20T20:08:53.340Z,47.30
2023-10-20T20:11:24.397Z,41.20
2023-10-20T20:13:52.486Z,44.67
2023-10-20T20:16:22.625Z,31.92
2023-10-20T20:18:55.481Z,32.33
2023-10-20T20:21:22.165Z,36.22
2023-10-20T20:23:49.383Z,47.78
2023-10-20T20:26:16.318Z,48.13
2023-10-20T20:28:43.745Z,113.18
2023-10-20T20:31:11.118Z,160.45
2023-10-20T20:33:38.017Z,146.70
2023-10-20T20:36:05.632Z,90.40
2023-10-20T20:38:32.453Z,126.63
2023-10-20T20:40:59.247Z,115.22
2023-10-20T20:43:28.292Z,110.32
2023-10-20T20:45:56.273Z,92.13
2023-10-20T20:48:28.728Z,105.75
2023-10-20T20:50:55.938Z,60.53
2023-10-20T20:53:22.626Z,55.30
2023-10-20T20:55:49.427Z,49.10
2023-10-20T20:58:18.980Z,41.05
2023-10-20T21:00:47.302Z,39.70
2023-10-20T21:03:14.306Z,62.08
2023-10-20T21:05:44.893Z,57.67
2023-10-20T21:08:12.089Z,50.78
2023-10-20T21:10:39.307Z,82.60
2023-10-20T21:13:07.111Z,60.63
2023-10-20T21:15:37.961Z,64.13
2023-10-20T21:18:04.918Z,44.85
2023-10-20T21:20:39.052Z,64.85
2023-10-20T21:23:06.127Z,77.95
2023-10-20T21:25:37.929Z,102.28
2023-10-20T21:28:06.553Z,239.18
2023-10-20T21:30:37.236Z,52.30
2023-10-20T21:33:07.015Z,110.10
2023-10-20T21:35:45.306Z,114.88
2023-10-20T21:38:12.306Z,60.58
2023-10-20T21:40:44.602Z,49.35
2023-10-20T21:43:13.046Z,32.17
2023-10-20T21:45:40.452Z,29.23
2023-10-20T21:48:07.287Z,32.38
2023-10-20T21:50:34.626Z,27.70
2023-10-20T21:53:01.388Z,43.35
2023-10-20T21:55:28.506Z,51.30
2023-10-20T21:57:55.186Z,36.22
2023-10-20T22:00:27.065Z,38.67
2023-10-20T22:02:54.013Z,58.30
2023-10-20T22:05:21.559Z,41.85
2023-10-20T22:07:49.374Z,44.55
2023-10-20T22:10:16.099Z,43.78
2023-10-20T22:12:42.923Z,44.92
2023-10-20T22:15:10.218Z,44.80
2023-10-20T22:17:37.608Z,41.72
2023-10-20T22:20:09.127Z,38.25
2023-10-20T22:22:35.844Z,37.25
2023-10-20T22:25:02.517Z,41.33
2023-10-20T22:27:30.490Z,35.83
2023-10-20T22:29:58.333Z,38.95
2023-10-20T22:32:25.042Z,34.30
2023-10-20T22:34:51.638Z,37.63
2023-10-20T22:37:18.406Z,30.00
2023-10-20T22:39:46.261Z,36.88
2023-10-20T22:42:13.198Z,40.42
2023-10-20T22:44:40.015Z,33.80
2023-10-20T22:47:10.018Z,35.50
2023-10-20T22:49:39.866Z,40.53
2023-10-20T22:52:09.373Z,52.75
2023-10-20T22:54:47.706Z,41.05
2023-10-20T22:57:19.352Z,39.78
2023-10-20T22:59:46.369Z,35.38
2023-10-20T23:02:14.360Z,45.85
2023-10-20T23:04:41.390Z,33.30
2023-10-20T23:07:09.191Z,34.85
2023-10-20T23:09:36.464Z,59.60
2023-10-20T23:12:06.650Z,30.88
2023-10-20T23:14:33.246Z,49.05
2023-10-20T23:17:00.921Z,44.75
2023-10-20T23:19:27.890Z,24.92
2023-10-20T23:21:54.425Z,36.70
2023-10-20T23:24:22.960Z,43.15
2023-10-20T23:26:51.049Z,34.00
2023-10-20T23:29:19.769Z,36.78
2023-10-20T23:31:47.308Z,34.60
2023-10-20T23:34:16.510Z,38.10
2023-10-20T23:36:45.072Z,37.35
2023-10-20T23:39:11.909Z,31.55
2023-10-20T23:41:40.079Z,37.13
2023-10-20T23:44:07.071Z,51.70
2023-10-20T23:46:35.244Z,33.08
2023-10-20T23:49:02.349Z,33.85
2023-10-20T23:51:31.668Z,43.42
2023-10-20T23:54:00.163Z,35.60
2023-10-20T23:56:27.538Z,36.47
2023-10-20T23:58:57.877Z,37.50
